Tsukuba Maru — 3FUJ4 — position and weather

sailwx.info

Track history (hours):
 
Tides and Currents Weather Stations Pressure Air Temp Water Temp Dewpoint Dewpoint Depression Visibility Wind Speed Wind Dir Waves Ship Positions

Tsukuba Maru

Last reported at 2017-Sep-30 01:34 UTC. Time now 2017-Oct-17 13:03 UTC.
Position S 23°53' E 154°07'.
Warning: this ship's position is 17 days out of date.

Length 299 m; draft 14.9 m.

Type: Cargo ship. MMSI: 352300000.

Date/timePositionNaut miles runAvg speedWind from/ knotsBaromVisibWave heightAir tempDewpointWater temp
2017-Sep-30 01:34S 23°53' E 154°07'211.5
2017-Sep-30 01:25S 23°55' E 154°07'1611.3
2017-Sep-30 00:01S 24°10' E 154°06'111.3
2017-Sep-29 23:54S 24°12' E 154°06'411.3
2017-Sep-29 23:30S 24°16' E 154°06'611.2
2017-Sep-29 23:00S 24°22' E 154°07'611.2
2017-Sep-29 22:30S 24°27' E 154°07'611.4
2017-Sep-29 22:00S 24°33' E 154°06'511.0
2017-Sep-29 21:30S 24°38' E 154°06'510.9
2017-Sep-29 21:00S 24°44' E 154°06'510.7
2017-Sep-29 20:30S 24°49' E 154°06'510.3
2017-Sep-29 20:00S 24°54' E 154°06'610.1
2017-Sep-29 19:24S 25°00' E 154°06'410.1
2017-Sep-29 19:00S 25°04' E 154°06'710.2
2017-Sep-29 18:16S 25°12' E 154°06'310.1
2017-Sep-29 17:59S 25°15' E 154°06'510.0
2017-Sep-29 17:31S 25°20' E 154°06'5 9.9
2017-Sep-29 17:00S 25°25' E 154°05'5 9.9
2017-Sep-29 16:30S 25°30' E 154°05'5 9.7
2017-Sep-29 16:00S 25°35' E 154°05'5 9.5
2017-Sep-29 15:30S 25°39' E 154°05'5 9.4
2017-Sep-29 14:58S 25°44' E 154°05'5 9.5
2017-Sep-29 14:30S 25°49' E 154°05'12 9.4
2017-Sep-29 13:10S 26°01' E 154°05'2 9.2
2017-Sep-29 13:00S 26°03' E 154°05'5 9.3
2017-Sep-29 12:30S 26°07' E 154°05'5 9.3
2017-Sep-29 12:00S 26°12' E 154°05'5 9.3
2017-Sep-29 11:30S 26°17' E 154°05'5 9.3
2017-Sep-29 11:00S 26°21' E 154°05'5 9.4
2017-Sep-29 10:30S 26°26' E 154°05'5 9.4
2017-Sep-29 10:00S 26°31' E 154°05'5 9.4
2017-Sep-29 09:30S 26°35' E 154°05'5 9.4
2017-Sep-29 09:00S 26°40' E 154°04'5 9.4
2017-Sep-29 08:30S 26°45' E 154°04'5 9.5
2017-Sep-29 08:00S 26°49' E 154°04'5 9.6
2017-Sep-29 07:30S 26°54' E 154°04'5 9.7
2017-Sep-29 07:00S 26°59' E 154°04'5 9.9
2017-Sep-29 06:30S 27°04' E 154°04'510.0
2017-Sep-29 06:00S 27°09' E 154°04'510.0
2017-Sep-29 05:30S 27°14' E 154°04'510.1
2017-Sep-29 05:00S 27°19' E 154°04'610.1
2017-Sep-29 04:23S 27°25' E 154°04'410.0
2017-Sep-29 04:00S 27°29' E 154°04'5 9.9
2017-Sep-29 03:30S 27°34' E 154°03'5 9.9
2017-Sep-29 03:00S 27°39' E 154°03'5 9.9
2017-Sep-29 02:30S 27°44' E 154°04'5 9.9
2017-Sep-29 02:00S 27°49' E 154°04'5 9.8
2017-Sep-29 01:30S 27°54' E 154°03'5 9.5
2017-Sep-29 01:00S 27°59' E 154°03'5 9.2
2017-Sep-29 00:30S 28°03' E 154°03'4 8.9
2017-Sep-29 00:00S 28°08' E 154°03'4 8.8
2017-Sep-28 23:30S 28°12' E 154°03'5 9.0
2017-Sep-28 23:00S 28°17' E 154°03'5 9.5
2017-Sep-28 22:30S 28°21' E 154°03'510.4
2017-Sep-28 22:00S 28°26' E 154°03'510.5
2017-Sep-28 21:30S 28°32' E 154°03'610.3
2017-Sep-28 20:58S 28°37' E 154°03'5 9.8
2017-Sep-28 20:30S 28°42' E 154°03'510.6
2017-Sep-28 20:00S 28°47' E 154°01'811.4
2017-Sep-28 19:16S 28°55' E 153°59'311.4
2017-Sep-28 19:00S 28°58' E 153°58'199 9.8
2017-Sep-27 22:35S 32°09' E 152°53'1 9.5
2017-Sep-27 22:30S 32°10' E 152°53'610.1
2017-Sep-27 21:52S 32°15' E 152°49'410.4
2017-Sep-27 21:30S 32°18' E 152°47'510.9
2017-Sep-27 21:00S 32°23' E 152°43'510.8
2017-Sep-27 20:30S 32°28' E 152°40'510.7
2017-Sep-27 20:00S 32°31' E 152°35'511.0
2017-Sep-27 19:30S 32°36' E 152°31'611.1
2017-Sep-27 19:00S 32°40' E 152°27'611.2
2017-Sep-27 18:30S 32°44' E 152°23'611.0
2017-Sep-27 18:00S 32°49' E 152°19'510.8
2017-Sep-27 17:30S 32°53' E 152°16'510.1
2017-Sep-27 17:00S 32°54' E 152°10'510.9
2017-Sep-27 16:30S 32°55' E 152°03'611.2
2017-Sep-27 16:00S 32°55' E 151°57'510.0
2017-Sep-27 15:30S 32°56' E 151°51'3 5.4
2017-Sep-27 15:00S 32°55' E 151°48'1 2.9
2017-Sep-27 14:30S 32°54' E 151°46'1 1.9
2017-Sep-27 13:58S 32°53' E 151°46'0 0.0
2017-Sep-27 13:28S 32°53' E 151°46'0 0.0
2017-Sep-27 12:58S 32°53' E 151°46'0 0.0
2017-Sep-27 12:28S 32°53' E 151°46'0 0.0
2017-Sep-27 11:58S 32°53' E 151°46'0 0.0
2017-Sep-27 11:28S 32°53' E 151°46'0 0.0
2017-Sep-27 10:58S 32°53' E 151°46'0 0.0
2017-Sep-27 10:28S 32°53' E 151°46'0 0.0
2017-Sep-27 09:58S 32°53' E 151°46'0 0.0
2017-Sep-27 09:28S 32°53' E 151°46'0 0.0
2017-Sep-27 08:58S 32°53' E 151°46'0 0.0
2017-Sep-27 08:28S 32°53' E 151°46'0 0.0
2017-Sep-27 07:58S 32°53' E 151°46'0 0.0
2017-Sep-27 07:28S 32°53' E 151°46'0 0.0
2017-Sep-27 06:58S 32°53' E 151°46'0 0.0
2017-Sep-27 06:28S 32°53' E 151°46'0 0.0
2017-Sep-27 05:58S 32°53' E 151°46'0 0.0
2017-Sep-27 05:28S 32°53' E 151°46'0 0.0
2017-Sep-27 04:58S 32°53' E 151°46'0 0.0
2017-Sep-27 04:28S 32°53' E 151°46'0 0.0
2017-Sep-27 03:58S 32°53' E 151°46'0 0.0
2017-Sep-27 03:28S 32°53' E 151°46'0 0.0
2017-Sep-27 02:58S 32°53' E 151°46'0 0.0
2017-Sep-27 02:28S 32°53' E 151°46'0 0.0
2017-Sep-27 01:58S 32°53' E 151°46'0 0.0
2017-Sep-27 01:28S 32°53' E 151°46'0 0.0
2017-Sep-27 00:58S 32°53' E 151°46'0 0.0
2017-Sep-27 00:28S 32°53' E 151°46'0 0.0
2017-Sep-26 23:58S 32°53' E 151°46'0 0.0
2017-Sep-26 23:28S 32°53' E 151°46'0 0.0
2017-Sep-26 22:58S 32°53' E 151°46'0 0.0
2017-Sep-26 22:28S 32°53' E 151°46'0 0.0
2017-Sep-26 21:58S 32°53' E 151°46'0 0.0
2017-Sep-26 21:22S 32°53' E 151°46'0 0.0
2017-Sep-26 20:55S 32°53' E 151°46'0 0.0
2017-Sep-26 20:28S 32°53' E 151°46'0 0.0
2017-Sep-26 19:58S 32°53' E 151°46'0 0.0
2017-Sep-26 19:28S 32°53' E 151°46'0 0.0
2017-Sep-26 18:58S 32°53' E 151°46'0 0.0
2017-Sep-26 18:28S 32°53' E 151°46'0 0.0
2017-Sep-26 17:58S 32°53' E 151°46'0 0.0
2017-Sep-26 17:28S 32°53' E 151°46'0 0.0
2017-Sep-26 16:58S 32°53' E 151°46'0 0.0
2017-Sep-26 16:28S 32°53' E 151°46'0 0.0
2017-Sep-26 15:58S 32°53' E 151°46'0 0.0
2017-Sep-26 15:28S 32°53' E 151°46'0 0.0
2017-Sep-26 14:58S 32°53' E 151°46'0 0.0
2017-Sep-26 14:28S 32°53' E 151°46'0 0.0
2017-Sep-26 13:58S 32°53' E 151°46'0 0.0
2017-Sep-26 13:28S 32°53' E 151°46'0 0.0
2017-Sep-26 12:58S 32°53' E 151°46'0 0.0
2017-Sep-26 12:28S 32°53' E 151°46'0 0.0
2017-Sep-26 11:58S 32°53' E 151°46'0 0.0
2017-Sep-26 11:28S 32°53' E 151°46'0 0.0
2017-Sep-26 10:58S 32°53' E 151°46'0 0.0
2017-Sep-26 10:28S 32°53' E 151°46'0 0.0
2017-Sep-26 09:58S 32°53' E 151°46'0 0.0
2017-Sep-26 09:28S 32°53' E 151°46'0 0.0
2017-Sep-26 08:58S 32°53' E 151°46'0 0.0
2017-Sep-26 08:28S 32°53' E 151°46'0 0.0
2017-Sep-26 07:58S 32°53' E 151°46'0 0.0
2017-Sep-26 07:28S 32°53' E 151°46'0 0.0
2017-Sep-26 06:58S 32°53' E 151°46'0 0.0
2017-Sep-26 06:28S 32°53' E 151°46'0 0.0
2017-Sep-26 05:58S 32°53' E 151°46'0 0.0
2017-Sep-26 05:28S 32°53' E 151°46'0 0.0
2017-Sep-26 04:58S 32°53' E 151°46'0 0.0
2017-Sep-26 04:28S 32°53' E 151°46'0 0.0
2017-Sep-26 03:58S 32°53' E 151°46'0 0.0
2017-Sep-26 03:28S 32°53' E 151°46'0 0.0
2017-Sep-26 02:58S 32°53' E 151°46'0 0.0
2017-Sep-26 02:28S 32°53' E 151°46'0 0.0
2017-Sep-26 01:58S 32°53' E 151°46'0 0.0
2017-Sep-26 01:28S 32°53' E 151°46'0 0.0
2017-Sep-26 00:58S 32°53' E 151°46'0 0.0
2017-Sep-26 00:28S 32°53' E 151°46'0 0.0
2017-Sep-25 23:58S 32°53' E 151°46'0 0.0
2017-Sep-25 23:28S 32°53' E 151°46'0 0.0
2017-Sep-25 22:58S 32°53' E 151°46'0 0.0
2017-Sep-25 22:28S 32°53' E 151°46'0 0.0
2017-Sep-25 21:58S 32°53' E 151°46'0 0.0
2017-Sep-25 21:28S 32°53' E 151°46'0 0.0
2017-Sep-25 21:00S 32°53' E 151°46'0 0.9
2017-Sep-25 20:30S 32°54' E 151°46'2 3.7
2017-Sep-25 20:00S 32°55' E 151°47'3 6.8
2017-Sep-25 19:30S 32°56' E 151°51'3 6.5
2017-Sep-25 19:00S 32°59' E 151°53'4 7.3
2017-Sep-25 18:30S 33°02' E 151°50'4 8.1
2017-Sep-25 18:00S 33°06' E 151°48'4 8.0
2017-Sep-25 17:30S 33°09' E 151°45'4 8.2
2017-Sep-25 17:00S 33°13' E 151°43'4 8.1
2017-Sep-25 16:30S 33°16' E 151°41'1 1.5
2017-Sep-25 15:54S 33°17' E 151°40'0 0.2
2017-Sep-25 15:30S 33°17' E 151°40'0 0.0
2017-Sep-25 15:00S 33°17' E 151°40'0 0.0
2017-Sep-25 13:33S 33°17' E 151°40'0 0.1
2017-Sep-25 13:21S 33°17' E 151°40'0 0.0
2017-Sep-25 12:57S 33°17' E 151°40'0 0.1
2017-Sep-25 12:09S 33°17' E 151°40'0 0.0
2017-Sep-25 11:57S 33°17' E 151°40'0 0.0
2017-Sep-25 11:30S 33°17' E 151°40'0 0.0
2017-Sep-25 11:00S 33°17' E 151°40'0 0.1
2017-Sep-25 10:27S 33°17' E 151°40'0 0.1
2017-Sep-25 10:00S 33°17' E 151°40'0 0.0
2017-Sep-25 09:30S 33°17' E 151°40'0 0.1
2017-Sep-25 09:00S 33°17' E 151°40'0 0.3
2017-Sep-25 08:27S 33°17' E 151°40'0 0.2
2017-Sep-25 07:57S 33°17' E 151°40'0 0.3
2017-Sep-25 07:30S 33°17' E 151°40'0 0.1
2017-Sep-25 06:51S 33°17' E 151°40'0 0.1
2017-Sep-25 06:30S 33°17' E 151°40'0 0.0
2017-Sep-25 06:00S 33°17' E 151°40'0 0.0
2017-Sep-25 05:30S 33°17' E 151°40'0 0.0
2017-Sep-25 05:00S 33°17' E 151°40'0 0.1
2017-Sep-25 04:30S 33°17' E 151°40'0 0.2
2017-Sep-25 04:00S 33°17' E 151°40'0 0.1
2017-Sep-25 03:30S 33°17' E 151°40'0 0.0
2017-Sep-25 03:00S 33°17' E 151°40'0 0.1
2017-Sep-25 02:30S 33°17' E 151°40'0 0.2
2017-Sep-25 01:57S 33°17' E 151°40'0 0.1
2017-Sep-25 01:30S 33°17' E 151°40'0 0.0
2017-Sep-25 00:45S 33°17' E 151°40'0 0.0
2017-Sep-25 00:30S 33°17' E 151°40'0 0.1
2017-Sep-25 00:00S 33°17' E 151°40'0 0.1
2017-Sep-24 23:30S 33°17' E 151°40'0 0.0
2017-Sep-24 22:57S 33°17' E 151°40'0 0.0
2017-Sep-24 22:30S 33°17' E 151°40'0 0.0
2017-Sep-24 22:00S 33°17' E 151°40'0 0.0
2017-Sep-24 21:30S 33°17' E 151°40'0 0.0
2017-Sep-24 21:00S 33°17' E 151°40'0 0.1
2017-Sep-24 20:30S 33°17' E 151°40'0 0.0
2017-Sep-24 20:00S 33°17' E 151°40'0 0.0
2017-Sep-24 19:30S 33°17' E 151°40'0 0.0
2017-Sep-24 18:57S 33°17' E 151°40'0 0.0
2017-Sep-24 18:30S 33°17' E 151°40'0 0.0
2017-Sep-24 18:00S 33°17' E 151°40'0 0.0
2017-Sep-24 17:30S 33°17' E 151°40'0 0.0
2017-Sep-24 17:00S 33°17' E 151°40'0 0.0
2017-Sep-24 16:30S 33°17' E 151°40'0 0.0
2017-Sep-24 16:00S 33°17' E 151°40'0 0.0
2017-Sep-24 15:30S 33°17' E 151°40'0 0.0
2017-Sep-24 15:00S 33°17' E 151°40'0 0.1
2017-Sep-24 14:30S 33°17' E 151°40'0 0.0
2017-Sep-24 14:00S 33°17' E 151°40'0 0.0
2017-Sep-24 13:30S 33°17' E 151°40'0 0.0
2017-Sep-24 13:00S 33°17' E 151°40'0 0.0
2017-Sep-24 12:30S 33°17' E 151°40'0 0.0
2017-Sep-24 12:00S 33°17' E 151°40'0 0.0
2017-Sep-24 11:30S 33°17' E 151°40'0 0.0
2017-Sep-24 11:00S 33°17' E 151°40'0 0.0
2017-Sep-24 10:30S 33°17' E 151°40'0 0.0
2017-Sep-24 10:00S 33°17' E 151°40'0 0.0
2017-Sep-24 09:30S 33°17' E 151°40'0 0.1
2017-Sep-24 09:00S 33°17' E 151°40'0 0.0
2017-Sep-24 08:30S 33°17' E 151°40'0 0.0
2017-Sep-24 08:00S 33°17' E 151°40'0 0.0
2017-Sep-24 07:30S 33°17' E 151°40'0 0.0
2017-Sep-24 07:00S 33°17' E 151°40'0 0.0
2017-Sep-24 06:30S 33°17' E 151°40'0 0.0
2017-Sep-24 06:00S 33°17' E 151°40'0 0.0
2017-Sep-24 05:30S 33°17' E 151°40'0 0.0
2017-Sep-24 05:00S 33°17' E 151°40'0 0.0
2017-Sep-24 04:30S 33°17' E 151°40'0 0.0
2017-Sep-24 04:00S 33°17' E 151°40'0 0.0
2017-Sep-24 03:30S 33°17' E 151°40'0 0.0
2017-Sep-24 03:00S 33°17' E 151°40'0 0.0
2017-Sep-24 02:30S 33°17' E 151°40'0 0.0
2017-Sep-24 02:00S 33°17' E 151°40'0 0.0
2017-Sep-24 01:30S 33°17' E 151°40'0 0.2
2017-Sep-24 01:00S 33°17' E 151°40'0 0.1
2017-Sep-24 00:30S 33°17' E 151°40'0 0.2
2017-Sep-24 00:00S 33°17' E 151°40'0 0.0
2017-Sep-23 23:30S 33°17' E 151°40'0 0.0
2017-Sep-23 23:00S 33°17' E 151°40'0 0.1
2017-Sep-23 21:27S 33°17' E 151°40'0 0.0
2017-Sep-23 21:00S 33°17' E 151°40'0 0.1
2017-Sep-23 20:27S 33°17' E 151°40'0 0.0
2017-Sep-23 20:00S 33°17' E 151°40'77 1.8
2017-Sep-22 02:00S 32°34' E 152°56'713.6
2017-Sep-22 01:30S 32°30' E 153°02'713.9
2017-Sep-22 01:00S 32°25' E 153°09'713.8
2017-Sep-22 00:30S 32°22' E 153°16'713.3
2017-Sep-22 00:00S 32°18' E 153°22'712.6
2017-Sep-21 23:29S 32°15' E 153°29'5 9.4
2017-Sep-21 22:54S 32°11' E 153°34'0 0.6
2017-Sep-21 22:30S 32°11' E 153°34'2 2.7
2017-Sep-21 21:46S 32°09' E 153°32'1 2.7
2017-Sep-21 21:29S 32°09' E 153°32'27 2.5
2017-Sep-21 10:47S 31°42' E 153°26'3 2.7
2017-Sep-21 09:42S 31°39' E 153°26'4 7.1
2017-Sep-21 09:12S 31°36' E 153°26'211.7
2017-Sep-21 09:00S 31°34' E 153°26'  
Track history (hours):
 
Tides and Currents Weather Stations Pressure Air Temp Water Temp Dewpoint Dewpoint Depression Visibility Wind Speed Wind Dir Waves Ship Positions

Tsukuba Maru

Last reported at 2017-Sep-30 01:34 UTC. Time now 2017-Oct-17 13:03 UTC.
Position S 23°53' E 154°07'.
Warning: this ship's position is 17 days out of date.

Length 299 m; draft 14.9 m.

Type: Cargo ship. MMSI: 352300000.

Date/timePositionNaut miles runAvg speedWind from/ knotsBaromVisibWave heightAir tempDewpointWater temp
2017-Sep-30 01:34S 23°53' E 154°07'211.5
2017-Sep-30 01:25S 23°55' E 154°07'1611.3
2017-Sep-30 00:01S 24°10' E 154°06'111.3
2017-Sep-29 23:54S 24°12' E 154°06'411.3
2017-Sep-29 23:30S 24°16' E 154°06'611.2
2017-Sep-29 23:00S 24°22' E 154°07'611.2
2017-Sep-29 22:30S 24°27' E 154°07'611.4
2017-Sep-29 22:00S 24°33' E 154°06'511.0
2017-Sep-29 21:30S 24°38' E 154°06'510.9
2017-Sep-29 21:00S 24°44' E 154°06'510.7
2017-Sep-29 20:30S 24°49' E 154°06'510.3
2017-Sep-29 20:00S 24°54' E 154°06'610.1
2017-Sep-29 19:24S 25°00' E 154°06'410.1
2017-Sep-29 19:00S 25°04' E 154°06'710.2
2017-Sep-29 18:16S 25°12' E 154°06'310.1
2017-Sep-29 17:59S 25°15' E 154°06'510.0
2017-Sep-29 17:31S 25°20' E 154°06'5 9.9
2017-Sep-29 17:00S 25°25' E 154°05'5 9.9
2017-Sep-29 16:30S 25°30' E 154°05'5 9.7
2017-Sep-29 16:00S 25°35' E 154°05'5 9.5
2017-Sep-29 15:30S 25°39' E 154°05'5 9.4
2017-Sep-29 14:58S 25°44' E 154°05'5 9.5
2017-Sep-29 14:30S 25°49' E 154°05'12 9.4
2017-Sep-29 13:10S 26°01' E 154°05'2 9.2
2017-Sep-29 13:00S 26°03' E 154°05'5 9.3
2017-Sep-29 12:30S 26°07' E 154°05'5 9.3
2017-Sep-29 12:00S 26°12' E 154°05'5 9.3
2017-Sep-29 11:30S 26°17' E 154°05'5 9.3
2017-Sep-29 11:00S 26°21' E 154°05'5 9.4
2017-Sep-29 10:30S 26°26' E 154°05'5 9.4
2017-Sep-29 10:00S 26°31' E 154°05'5 9.4
2017-Sep-29 09:30S 26°35' E 154°05'5 9.4
2017-Sep-29 09:00S 26°40' E 154°04'5 9.4
2017-Sep-29 08:30S 26°45' E 154°04'5 9.5
2017-Sep-29 08:00S 26°49' E 154°04'5 9.6
2017-Sep-29 07:30S 26°54' E 154°04'5 9.7
2017-Sep-29 07:00S 26°59' E 154°04'5 9.9
2017-Sep-29 06:30S 27°04' E 154°04'510.0
2017-Sep-29 06:00S 27°09' E 154°04'510.0
2017-Sep-29 05:30S 27°14' E 154°04'510.1
2017-Sep-29 05:00S 27°19' E 154°04'610.1
2017-Sep-29 04:23S 27°25' E 154°04'410.0
2017-Sep-29 04:00S 27°29' E 154°04'5 9.9
2017-Sep-29 03:30S 27°34' E 154°03'5 9.9
2017-Sep-29 03:00S 27°39' E 154°03'5 9.9
2017-Sep-29 02:30S 27°44' E 154°04'5 9.9
2017-Sep-29 02:00S 27°49' E 154°04'5 9.8
2017-Sep-29 01:30S 27°54' E 154°03'5 9.5
2017-Sep-29 01:00S 27°59' E 154°03'5 9.2
2017-Sep-29 00:30S 28°03' E 154°03'4 8.9
2017-Sep-29 00:00S 28°08' E 154°03'4 8.8
2017-Sep-28 23:30S 28°12' E 154°03'5 9.0
2017-Sep-28 23:00S 28°17' E 154°03'5 9.5
2017-Sep-28 22:30S 28°21' E 154°03'510.4
2017-Sep-28 22:00S 28°26' E 154°03'510.5
2017-Sep-28 21:30S 28°32' E 154°03'610.3
2017-Sep-28 20:58S 28°37' E 154°03'5 9.8
2017-Sep-28 20:30S 28°42' E 154°03'510.6
2017-Sep-28 20:00S 28°47' E 154°01'811.4
2017-Sep-28 19:16S 28°55' E 153°59'311.4
2017-Sep-28 19:00S 28°58' E 153°58'199 9.8
2017-Sep-27 22:35S 32°09' E 152°53'1 9.5
2017-Sep-27 22:30S 32°10' E 152°53'610.1
2017-Sep-27 21:52S 32°15' E 152°49'410.4
2017-Sep-27 21:30S 32°18' E 152°47'510.9
2017-Sep-27 21:00S 32°23' E 152°43'510.8
2017-Sep-27 20:30S 32°28' E 152°40'510.7
2017-Sep-27 20:00S 32°31' E 152°35'511.0
2017-Sep-27 19:30S 32°36' E 152°31'611.1
2017-Sep-27 19:00S 32°40' E 152°27'611.2
2017-Sep-27 18:30S 32°44' E 152°23'611.0
2017-Sep-27 18:00S 32°49' E 152°19'510.8
2017-Sep-27 17:30S 32°53' E 152°16'510.1
2017-Sep-27 17:00S 32°54' E 152°10'510.9
2017-Sep-27 16:30S 32°55' E 152°03'611.2
2017-Sep-27 16:00S 32°55' E 151°57'510.0
2017-Sep-27 15:30S 32°56' E 151°51'3 5.4
2017-Sep-27 15:00S 32°55' E 151°48'1 2.9
2017-Sep-27 14:30S 32°54' E 151°46'1 1.9
2017-Sep-27 13:58S 32°53' E 151°46'0 0.0
2017-Sep-27 13:28S 32°53' E 151°46'0 0.0
2017-Sep-27 12:58S 32°53' E 151°46'0 0.0
2017-Sep-27 12:28S 32°53' E 151°46'0 0.0
2017-Sep-27 11:58S 32°53' E 151°46'0 0.0
2017-Sep-27 11:28S 32°53' E 151°46'0 0.0
2017-Sep-27 10:58S 32°53' E 151°46'0 0.0
2017-Sep-27 10:28S 32°53' E 151°46'0 0.0
2017-Sep-27 09:58S 32°53' E 151°46'0 0.0
2017-Sep-27 09:28S 32°53' E 151°46'0 0.0
2017-Sep-27 08:58S 32°53' E 151°46'0 0.0
2017-Sep-27 08:28S 32°53' E 151°46'0 0.0
2017-Sep-27 07:58S 32°53' E 151°46'0 0.0
2017-Sep-27 07:28S 32°53' E 151°46'0 0.0
2017-Sep-27 06:58S 32°53' E 151°46'0 0.0
2017-Sep-27 06:28S 32°53' E 151°46'0 0.0
2017-Sep-27 05:58S 32°53' E 151°46'0 0.0
2017-Sep-27 05:28S 32°53' E 151°46'0 0.0
2017-Sep-27 04:58S 32°53' E 151°46'0 0.0
2017-Sep-27 04:28S 32°53' E 151°46'0 0.0
2017-Sep-27 03:58S 32°53' E 151°46'0 0.0
2017-Sep-27 03:28S 32°53' E 151°46'0 0.0
2017-Sep-27 02:58S 32°53' E 151°46'0 0.0
2017-Sep-27 02:28S 32°53' E 151°46'0 0.0
2017-Sep-27 01:58S 32°53' E 151°46'0 0.0
2017-Sep-27 01:28S 32°53' E 151°46'0 0.0
2017-Sep-27 00:58S 32°53' E 151°46'0 0.0
2017-Sep-27 00:28S 32°53' E 151°46'0 0.0
2017-Sep-26 23:58S 32°53' E 151°46'0 0.0
2017-Sep-26 23:28S 32°53' E 151°46'0 0.0
2017-Sep-26 22:58S 32°53' E 151°46'0 0.0
2017-Sep-26 22:28S 32°53' E 151°46'0 0.0
2017-Sep-26 21:58S 32°53' E 151°46'0 0.0
2017-Sep-26 21:22S 32°53' E 151°46'0 0.0
2017-Sep-26 20:55S 32°53' E 151°46'0 0.0
2017-Sep-26 20:28S 32°53' E 151°46'0 0.0
2017-Sep-26 19:58S 32°53' E 151°46'0 0.0
2017-Sep-26 19:28S 32°53' E 151°46'0 0.0
2017-Sep-26 18:58S 32°53' E 151°46'0 0.0
2017-Sep-26 18:28S 32°53' E 151°46'0 0.0
2017-Sep-26 17:58S 32°53' E 151°46'0 0.0
2017-Sep-26 17:28S 32°53' E 151°46'0 0.0
2017-Sep-26 16:58S 32°53' E 151°46'0 0.0
2017-Sep-26 16:28S 32°53' E 151°46'0 0.0
2017-Sep-26 15:58S 32°53' E 151°46'0 0.0
2017-Sep-26 15:28S 32°53' E 151°46'0 0.0
2017-Sep-26 14:58S 32°53' E 151°46'0 0.0
2017-Sep-26 14:28S 32°53' E 151°46'0 0.0
2017-Sep-26 13:58S 32°53' E 151°46'0 0.0
2017-Sep-26 13:28S 32°53' E 151°46'0 0.0
2017-Sep-26 12:58S 32°53' E 151°46'0 0.0
2017-Sep-26 12:28S 32°53' E 151°46'0 0.0
2017-Sep-26 11:58S 32°53' E 151°46'0 0.0
2017-Sep-26 11:28S 32°53' E 151°46'0 0.0
2017-Sep-26 10:58S 32°53' E 151°46'0 0.0
2017-Sep-26 10:28S 32°53' E 151°46'0 0.0
2017-Sep-26 09:58S 32°53' E 151°46'0 0.0
2017-Sep-26 09:28S 32°53' E 151°46'0 0.0
2017-Sep-26 08:58S 32°53' E 151°46'0 0.0
2017-Sep-26 08:28S 32°53' E 151°46'0 0.0
2017-Sep-26 07:58S 32°53' E 151°46'0 0.0
2017-Sep-26 07:28S 32°53' E 151°46'0 0.0
2017-Sep-26 06:58S 32°53' E 151°46'0 0.0
2017-Sep-26 06:28S 32°53' E 151°46'0 0.0
2017-Sep-26 05:58S 32°53' E 151°46'0 0.0
2017-Sep-26 05:28S 32°53' E 151°46'0 0.0
2017-Sep-26 04:58S 32°53' E 151°46'0 0.0
2017-Sep-26 04:28S 32°53' E 151°46'0 0.0
2017-Sep-26 03:58S 32°53' E 151°46'0 0.0
2017-Sep-26 03:28S 32°53' E 151°46'0 0.0
2017-Sep-26 02:58S 32°53' E 151°46'0 0.0
2017-Sep-26 02:28S 32°53' E 151°46'0 0.0
2017-Sep-26 01:58S 32°53' E 151°46'0 0.0
2017-Sep-26 01:28S 32°53' E 151°46'0 0.0
2017-Sep-26 00:58S 32°53' E 151°46'0 0.0
2017-Sep-26 00:28S 32°53' E 151°46'0 0.0
2017-Sep-25 23:58S 32°53' E 151°46'0 0.0
2017-Sep-25 23:28S 32°53' E 151°46'0 0.0
2017-Sep-25 22:58S 32°53' E 151°46'0 0.0
2017-Sep-25 22:28S 32°53' E 151°46'0 0.0
2017-Sep-25 21:58S 32°53' E 151°46'0 0.0
2017-Sep-25 21:28S 32°53' E 151°46'0 0.0
2017-Sep-25 21:00S 32°53' E 151°46'0 0.9
2017-Sep-25 20:30S 32°54' E 151°46'2 3.7
2017-Sep-25 20:00S 32°55' E 151°47'3 6.8
2017-Sep-25 19:30S 32°56' E 151°51'3 6.5
2017-Sep-25 19:00S 32°59' E 151°53'4 7.3
2017-Sep-25 18:30S 33°02' E 151°50'4 8.1
2017-Sep-25 18:00S 33°06' E 151°48'4 8.0
2017-Sep-25 17:30S 33°09' E 151°45'4 8.2
2017-Sep-25 17:00S 33°13' E 151°43'4 8.1
2017-Sep-25 16:30S 33°16' E 151°41'1 1.5
2017-Sep-25 15:54S 33°17' E 151°40'0 0.2
2017-Sep-25 15:30S 33°17' E 151°40'0 0.0
2017-Sep-25 15:00S 33°17' E 151°40'0 0.0
2017-Sep-25 13:33S 33°17' E 151°40'0 0.1
2017-Sep-25 13:21S 33°17' E 151°40'0 0.0
2017-Sep-25 12:57S 33°17' E 151°40'0 0.1
2017-Sep-25 12:09S 33°17' E 151°40'0 0.0
2017-Sep-25 11:57S 33°17' E 151°40'0 0.0
2017-Sep-25 11:30S 33°17' E 151°40'0 0.0
2017-Sep-25 11:00S 33°17' E 151°40'0 0.1
2017-Sep-25 10:27S 33°17' E 151°40'0 0.1
2017-Sep-25 10:00S 33°17' E 151°40'0 0.0
2017-Sep-25 09:30S 33°17' E 151°40'0 0.1
2017-Sep-25 09:00S 33°17' E 151°40'0 0.3
2017-Sep-25 08:27S 33°17' E 151°40'0 0.2
2017-Sep-25 07:57S 33°17' E 151°40'0 0.3
2017-Sep-25 07:30S 33°17' E 151°40'0 0.1
2017-Sep-25 06:51S 33°17' E 151°40'0 0.1
2017-Sep-25 06:30S 33°17' E 151°40'0 0.0
2017-Sep-25 06:00S 33°17' E 151°40'0 0.0
2017-Sep-25 05:30S 33°17' E 151°40'0 0.0
2017-Sep-25 05:00S 33°17' E 151°40'0 0.1
2017-Sep-25 04:30S 33°17' E 151°40'0 0.2
2017-Sep-25 04:00S 33°17' E 151°40'0 0.1
2017-Sep-25 03:30S 33°17' E 151°40'0 0.0
2017-Sep-25 03:00S 33°17' E 151°40'0 0.1
2017-Sep-25 02:30S 33°17' E 151°40'0 0.2
2017-Sep-25 01:57S 33°17' E 151°40'0 0.1
2017-Sep-25 01:30S 33°17' E 151°40'0 0.0
2017-Sep-25 00:45S 33°17' E 151°40'0 0.0
2017-Sep-25 00:30S 33°17' E 151°40'0 0.1
2017-Sep-25 00:00S 33°17' E 151°40'0 0.1
2017-Sep-24 23:30S 33°17' E 151°40'0 0.0
2017-Sep-24 22:57S 33°17' E 151°40'0 0.0
2017-Sep-24 22:30S 33°17' E 151°40'0 0.0
2017-Sep-24 22:00S 33°17' E 151°40'0 0.0
2017-Sep-24 21:30S 33°17' E 151°40'0 0.0
2017-Sep-24 21:00S 33°17' E 151°40'0 0.1
2017-Sep-24 20:30S 33°17' E 151°40'0 0.0
2017-Sep-24 20:00S 33°17' E 151°40'0 0.0
2017-Sep-24 19:30S 33°17' E 151°40'0 0.0
2017-Sep-24 18:57S 33°17' E 151°40'0 0.0
2017-Sep-24 18:30S 33°17' E 151°40'0 0.0
2017-Sep-24 18:00S 33°17' E 151°40'0 0.0
2017-Sep-24 17:30S 33°17' E 151°40'0 0.0
2017-Sep-24 17:00S 33°17' E 151°40'0 0.0
2017-Sep-24 16:30S 33°17' E 151°40'0 0.0
2017-Sep-24 16:00S 33°17' E 151°40'0 0.0
2017-Sep-24 15:30S 33°17' E 151°40'0 0.0
2017-Sep-24 15:00S 33°17' E 151°40'0 0.1
2017-Sep-24 14:30S 33°17' E 151°40'0 0.0
2017-Sep-24 14:00S 33°17' E 151°40'0 0.0
2017-Sep-24 13:30S 33°17' E 151°40'0 0.0
2017-Sep-24 13:00S 33°17' E 151°40'0 0.0
2017-Sep-24 12:30S 33°17' E 151°40'0 0.0
2017-Sep-24 12:00S 33°17' E 151°40'0 0.0
2017-Sep-24 11:30S 33°17' E 151°40'0 0.0
2017-Sep-24 11:00S 33°17' E 151°40'0 0.0
2017-Sep-24 10:30S 33°17' E 151°40'0 0.0
2017-Sep-24 10:00S 33°17' E 151°40'0 0.0
2017-Sep-24 09:30S 33°17' E 151°40'0 0.1
2017-Sep-24 09:00S 33°17' E 151°40'0 0.0
2017-Sep-24 08:30S 33°17' E 151°40'0 0.0
2017-Sep-24 08:00S 33°17' E 151°40'0 0.0
2017-Sep-24 07:30S 33°17' E 151°40'0 0.0
2017-Sep-24 07:00S 33°17' E 151°40'0 0.0
2017-Sep-24 06:30S 33°17' E 151°40'0 0.0
2017-Sep-24 06:00S 33°17' E 151°40'0 0.0
2017-Sep-24 05:30S 33°17' E 151°40'0 0.0
2017-Sep-24 05:00S 33°17' E 151°40'0 0.0
2017-Sep-24 04:30S 33°17' E 151°40'0 0.0
2017-Sep-24 04:00S 33°17' E 151°40'0 0.0
2017-Sep-24 03:30S 33°17' E 151°40'0 0.0
2017-Sep-24 03:00S 33°17' E 151°40'0 0.0
2017-Sep-24 02:30S 33°17' E 151°40'0 0.0
2017-Sep-24 02:00S 33°17' E 151°40'0 0.0
2017-Sep-24 01:30S 33°17' E 151°40'0 0.2
2017-Sep-24 01:00S 33°17' E 151°40'0 0.1
2017-Sep-24 00:30S 33°17' E 151°40'0 0.2
2017-Sep-24 00:00S 33°17' E 151°40'0 0.0
2017-Sep-23 23:30S 33°17' E 151°40'0 0.0
2017-Sep-23 23:00S 33°17' E 151°40'0 0.1
2017-Sep-23 21:27S 33°17' E 151°40'0 0.0
2017-Sep-23 21:00S 33°17' E 151°40'0 0.1
2017-Sep-23 20:27S 33°17' E 151°40'0 0.0
2017-Sep-23 20:00S 33°17' E 151°40'77 1.8
2017-Sep-22 02:00S 32°34' E 152°56'713.6
2017-Sep-22 01:30S 32°30' E 153°02'713.9
2017-Sep-22 01:00S 32°25' E 153°09'713.8
2017-Sep-22 00:30S 32°22' E 153°16'713.3
2017-Sep-22 00:00S 32°18' E 153°22'712.6
2017-Sep-21 23:29S 32°15' E 153°29'5 9.4
2017-Sep-21 22:54S 32°11' E 153°34'0 0.6
2017-Sep-21 22:30S 32°11' E 153°34'2 2.7
2017-Sep-21 21:46S 32°09' E 153°32'1 2.7
2017-Sep-21 21:29S 32°09' E 153°32'27 2.5
2017-Sep-21 10:47S 31°42' E 153°26'3 2.7
2017-Sep-21 09:42S 31°39' E 153°26'4 7.1
2017-Sep-21 09:12S 31°36' E 153°26'211.7
2017-Sep-21 09:00S 31°34' E 153°26'  

Dump ship's entire track history